sensor_id;sensor_type;location;lat;lon;timestamp;P1;durP1;ratioP1;P2;durP2;ratioP2
19903;SDS011;10114;50.970;4.962;2022-12-24T00:01:42;32.83;;;4.70;;
19903;SDS011;10114;50.970;4.962;2022-12-24T00:04:09;32.40;;;4.20;;
19903;SDS011;10114;50.970;4.962;2022-12-24T00:06:35;24.40;;;3.55;;
19903;SDS011;10114;50.970;4.962;2022-12-24T00:09:01;34.83;;;3.95;;
19903;SDS011;10114;50.970;4.962;2022-12-24T00:11:27;31.35;;;3.53;;
19903;SDS011;10114;50.970;4.962;2022-12-24T00:13:53;23.15;;;4.50;;
19903;SDS011;10114;50.970;4.962;2022-12-24T00:16:19;30.90;;;3.67;;
19903;SDS011;10114;50.970;4.962;2022-12-24T00:18:45;24.30;;;4.63;;
19903;SDS011;10114;50.970;4.962;2022-12-24T00:21:11;32.75;;;3.92;;
19903;SDS011;10114;50.970;4.962;2022-12-24T00:23:38;24.50;;;4.20;;
19903;SDS011;10114;50.970;4.962;2022-12-24T00:26:04;24.70;;;3.40;;
19903;SDS011;10114;50.970;4.962;2022-12-24T00:28:30;21.77;;;4.00;;
19903;SDS011;10114;50.970;4.962;2022-12-24T00:30:56;26.05;;;3.78;;
19903;SDS011;10114;50.970;4.962;2022-12-24T00:33:22;26.23;;;3.47;;
19903;SDS011;10114;50.970;4.962;2022-12-24T00:35:49;33.03;;;3.70;;
19903;SDS011;10114;50.970;4.962;2022-12-24T00:38:15;27.80;;;3.88;;
19903;SDS011;10114;50.970;4.962;2022-12-24T00:40:41;32.20;;;3.78;;
19903;SDS011;10114;50.970;4.962;2022-12-24T00:43:07;31.23;;;4.38;;
19903;SDS011;10114;50.970;4.962;2022-12-24T00:45:33;26.70;;;4.22;;
19903;SDS011;10114;50.970;4.962;2022-12-24T00:47:59;30.20;;;4.45;;
19903;SDS011;10114;50.970;4.962;2022-12-24T00:50:25;26.42;;;4.03;;
19903;SDS011;10114;50.970;4.962;2022-12-24T00:52:51;23.38;;;3.65;;
19903;SDS011;10114;50.970;4.962;2022-12-24T00:55:17;40.25;;;4.70;;
19903;SDS011;10114;50.970;4.962;2022-12-24T00:57:43;24.10;;;4.03;;
19903;SDS011;10114;50.970;4.962;2022-12-24T01:00:10;24.95;;;4.28;;
19903;SDS011;10114;50.970;4.962;2022-12-24T01:02:36;26.88;;;4.55;;
19903;SDS011;10114;50.970;4.962;2022-12-24T01:05:02;24.92;;;3.63;;
19903;SDS011;10114;50.970;4.962;2022-12-24T01:07:34;22.05;;;3.55;;
19903;SDS011;10114;50.970;4.962;2022-12-24T01:10:01;24.95;;;3.80;;
19903;SDS011;10114;50.970;4.962;2022-12-24T01:12:27;23.17;;;3.65;;
19903;SDS011;10114;50.970;4.962;2022-12-24T01:14:53;26.15;;;4.05;;
19903;SDS011;10114;50.970;4.962;2022-12-24T01:17:19;24.60;;;3.08;;
19903;SDS011;10114;50.970;4.962;2022-12-24T01:19:45;14.13;;;3.10;;
19903;SDS011;10114;50.970;4.962;2022-12-24T01:22:11;26.65;;;3.60;;
19903;SDS011;10114;50.970;4.962;2022-12-24T01:24:39;18.20;;;3.10;;
19903;SDS011;10114;50.970;4.962;2022-12-24T01:27:05;26.80;;;3.80;;
19903;SDS011;10114;50.970;4.962;2022-12-24T01:29:31;28.70;;;4.05;;
19903;SDS011;10114;50.970;4.962;2022-12-24T01:31:57;23.77;;;3.42;;
19903;SDS011;10114;50.970;4.962;2022-12-24T01:34:23;22.75;;;4.07;;
19903;SDS011;10114;50.970;4.962;2022-12-24T01:36:49;22.85;;;3.50;;
19903;SDS011;10114;50.970;4.962;2022-12-24T01:39:15;19.70;;;3.55;;
19903;SDS011;10114;50.970;4.962;2022-12-24T01:41:41;29.48;;;4.32;;
19903;SDS011;10114;50.970;4.962;2022-12-24T01:44:27;14.75;;;3.10;;
19903;SDS011;10114;50.970;4.962;2022-12-24T01:47:19;21.27;;;3.85;;
19903;SDS011;10114;50.970;4.962;2022-12-24T01:49:48;26.60;;;4.82;;
19903;SDS011;10114;50.970;4.962;2022-12-24T01:52:16;26.60;;;4.35;;
19903;SDS011;10114;50.970;4.962;2022-12-24T01:54:49;28.50;;;3.67;;
19903;SDS011;10114;50.970;4.962;2022-12-24T01:57:17;21.15;;;3.42;;
19903;SDS011;10114;50.970;4.962;2022-12-24T01:59:45;17.83;;;3.08;;
19903;SDS011;10114;50.970;4.962;2022-12-24T02:02:14;20.77;;;3.53;;
19903;SDS011;10114;50.970;4.962;2022-12-24T02:04:58;23.15;;;2.72;;
19903;SDS011;10114;50.970;4.962;2022-12-24T02:07:26;25.83;;;3.13;;
19903;SDS011;10114;50.970;4.962;2022-12-24T02:09:54;21.83;;;3.30;;
19903;SDS011;10114;50.970;4.962;2022-12-24T02:12:21;14.23;;;3.05;;
19903;SDS011;10114;50.970;4.962;2022-12-24T02:14:47;21.58;;;2.70;;
19903;SDS011;10114;50.970;4.962;2022-12-24T02:37:46;14.45;;;2.75;;
19903;SDS011;10114;50.970;4.962;2022-12-24T02:40:15;18.48;;;3.22;;
19903;SDS011;10114;50.970;4.962;2022-12-24T02:42:45;21.38;;;3.75;;
19903;SDS011;10114;50.970;4.962;2022-12-24T02:45:14;17.80;;;2.95;;
19903;SDS011;10114;50.970;4.962;2022-12-24T02:47:41;18.70;;;3.17;;
19903;SDS011;10114;50.970;4.962;2022-12-24T02:50:09;18.90;;;3.58;;
19903;SDS011;10114;50.970;4.962;2022-12-24T02:52:36;23.63;;;3.72;;
19903;SDS011;10114;50.970;4.962;2022-12-24T02:55:04;24.40;;;3.90;;
19903;SDS011;10114;50.970;4.962;2022-12-24T03:00:07;24.45;;;3.10;;
19903;SDS011;10114;50.970;4.962;2022-12-24T03:13:06;27.50;;;4.00;;
19903;SDS011;10114;50.970;4.962;2022-12-24T03:15:35;32.15;;;4.15;;
19903;SDS011;10114;50.970;4.962;2022-12-24T03:18:02;31.08;;;4.70;;
19903;SDS011;10114;50.970;4.962;2022-12-24T03:20:36;29.30;;;4.07;;
19903;SDS011;10114;50.970;4.962;2022-12-24T03:23:02;25.92;;;3.47;;
19903;SDS011;10114;50.970;4.962;2022-12-24T03:25:28;21.65;;;4.35;;
19903;SDS011;10114;50.970;4.962;2022-12-24T03:27:55;24.73;;;3.20;;
19903;SDS011;10114;50.970;4.962;2022-12-24T03:30:22;22.70;;;3.63;;
19903;SDS011;10114;50.970;4.962;2022-12-24T03:32:48;20.23;;;4.65;;
19903;SDS011;10114;50.970;4.962;2022-12-24T03:35:14;20.77;;;4.30;;
19903;SDS011;10114;50.970;4.962;2022-12-24T03:37:40;21.25;;;4.45;;
19903;SDS011;10114;50.970;4.962;2022-12-24T03:40:06;21.08;;;4.00;;
19903;SDS011;10114;50.970;4.962;2022-12-24T03:42:32;25.67;;;4.75;;
19903;SDS011;10114;50.970;4.962;2022-12-24T03:44:58;17.38;;;3.10;;
19903;SDS011;10114;50.970;4.962;2022-12-24T03:47:24;24.98;;;3.80;;
19903;SDS011;10114;50.970;4.962;2022-12-24T03:49:50;22.60;;;4.07;;
19903;SDS011;10114;50.970;4.962;2022-12-24T03:52:16;17.60;;;3.15;;
19903;SDS011;10114;50.970;4.962;2022-12-24T03:54:42;26.33;;;4.97;;
19903;SDS011;10114;50.970;4.962;2022-12-24T03:57:08;23.48;;;4.05;;
19903;SDS011;10114;50.970;4.962;2022-12-24T03:59:34;21.95;;;3.40;;
19903;SDS011;10114;50.970;4.962;2022-12-24T04:02:00;19.08;;;3.50;;
19903;SDS011;10114;50.970;4.962;2022-12-24T04:04:27;16.73;;;3.20;;
19903;SDS011;10114;50.970;4.962;2022-12-24T04:06:53;17.13;;;3.53;;
19903;SDS011;10114;50.970;4.962;2022-12-24T04:09:19;28.08;;;3.95;;
19903;SDS011;10114;50.970;4.962;2022-12-24T04:11:45;25.33;;;4.03;;
19903;SDS011;10114;50.970;4.962;2022-12-24T04:14:11;24.13;;;4.30;;
19903;SDS011;10114;50.970;4.962;2022-12-24T04:16:37;24.63;;;4.20;;
19903;SDS011;10114;50.970;4.962;2022-12-24T04:19:03;22.50;;;3.90;;
19903;SDS011;10114;50.970;4.962;2022-12-24T04:21:29;26.13;;;4.78;;
19903;SDS011;10114;50.970;4.962;2022-12-24T04:23:55;26.58;;;4.05;;
19903;SDS011;10114;50.970;4.962;2022-12-24T04:26:21;25.95;;;4.30;;
19903;SDS011;10114;50.970;4.962;2022-12-24T04:28:47;28.98;;;4.90;;
19903;SDS011;10114;50.970;4.962;2022-12-24T04:31:13;25.45;;;4.05;;
19903;SDS011;10114;50.970;4.962;2022-12-24T04:33:40;29.50;;;4.70;;
19903;SDS011;10114;50.970;4.962;2022-12-24T04:36:06;25.98;;;4.47;;
19903;SDS011;10114;50.970;4.962;2022-12-24T04:38:32;27.73;;;5.05;;
19903;SDS011;10114;50.970;4.962;2022-12-24T04:43:31;24.77;;;4.07;;
19903;SDS011;10114;50.970;4.962;2022-12-24T04:46:13;23.42;;;5.32;;
19903;SDS011;10114;50.970;4.962;2022-12-24T04:48:41;30.42;;;5.00;;
19903;SDS011;10114;50.970;4.962;2022-12-24T04:51:08;28.80;;;4.25;;
19903;SDS011;10114;50.970;4.962;2022-12-24T04:53:37;32.05;;;4.32;;
19903;SDS011;10114;50.970;4.962;2022-12-24T04:56:06;26.35;;;4.63;;
19903;SDS011;10114;50.970;4.962;2022-12-24T04:58:32;33.97;;;5.57;;
19903;SDS011;10114;50.970;4.962;2022-12-24T05:01:02;24.70;;;4.80;;
19903;SDS011;10114;50.970;4.962;2022-12-24T05:03:28;36.80;;;5.43;;
19903;SDS011;10114;50.970;4.962;2022-12-24T05:06:00;31.63;;;4.82;;
19903;SDS011;10114;50.970;4.962;2022-12-24T05:08:26;28.48;;;4.40;;
19903;SDS011;10114;50.970;4.962;2022-12-24T05:10:55;29.77;;;4.40;;
19903;SDS011;10114;50.970;4.962;2022-12-24T05:13:22;35.05;;;4.70;;
19903;SDS011;10114;50.970;4.962;2022-12-24T05:15:48;33.65;;;4.97;;
19903;SDS011;10114;50.970;4.962;2022-12-24T05:18:14;23.95;;;4.03;;
19903;SDS011;10114;50.970;4.962;2022-12-24T05:20:40;31.65;;;4.13;;
19903;SDS011;10114;50.970;4.962;2022-12-24T05:23:06;30.92;;;4.68;;
19903;SDS011;10114;50.970;4.962;2022-12-24T05:25:51;27.20;;;4.32;;
19903;SDS011;10114;50.970;4.962;2022-12-24T05:28:35;22.17;;;4.20;;
19903;SDS011;10114;50.970;4.962;2022-12-24T05:31:01;38.28;;;4.90;;
19903;SDS011;10114;50.970;4.962;2022-12-24T05:33:27;27.67;;;4.43;;
19903;SDS011;10114;50.970;4.962;2022-12-24T05:35:53;31.00;;;4.35;;
19903;SDS011;10114;50.970;4.962;2022-12-24T05:38:19;30.20;;;4.50;;
19903;SDS011;10114;50.970;4.962;2022-12-24T05:40:45;31.85;;;4.72;;
19903;SDS011;10114;50.970;4.962;2022-12-24T05:43:12;30.45;;;5.65;;
19903;SDS011;10114;50.970;4.962;2022-12-24T05:45:38;24.65;;;4.65;;
19903;SDS011;10114;50.970;4.962;2022-12-24T05:48:04;30.80;;;4.57;;
19903;SDS011;10114;50.970;4.962;2022-12-24T05:50:32;32.58;;;3.65;;
19903;SDS011;10114;50.970;4.962;2022-12-24T05:52:58;30.33;;;4.80;;
19903;SDS011;10114;50.970;4.962;2022-12-24T05:55:24;27.80;;;4.63;;
19903;SDS011;10114;50.970;4.962;2022-12-24T05:57:50;25.17;;;4.45;;
19903;SDS011;10114;50.970;4.962;2022-12-24T06:00:16;30.92;;;4.32;;
19903;SDS011;10114;50.970;4.962;2022-12-24T06:02:43;37.80;;;5.53;;
19903;SDS011;10114;50.970;4.962;2022-12-24T06:05:09;29.00;;;4.57;;
19903;SDS011;10114;50.970;4.962;2022-12-24T06:07:35;30.85;;;4.30;;
19903;SDS011;10114;50.970;4.962;2022-12-24T06:10:01;36.42;;;4.97;;
19903;SDS011;10114;50.970;4.962;2022-12-24T06:12:27;30.08;;;4.70;;
19903;SDS011;10114;50.970;4.962;2022-12-24T06:14:53;28.75;;;4.82;;
19903;SDS011;10114;50.970;4.962;2022-12-24T06:17:19;28.13;;;4.88;;
19903;SDS011;10114;50.970;4.962;2022-12-24T06:19:45;25.30;;;3.78;;
19903;SDS011;10114;50.970;4.962;2022-12-24T06:22:11;39.40;;;5.80;;
19903;SDS011;10114;50.970;4.962;2022-12-24T06:24:37;31.33;;;5.18;;
19903;SDS011;10114;50.970;4.962;2022-12-24T06:27:03;28.42;;;4.20;;
19903;SDS011;10114;50.970;4.962;2022-12-24T06:29:29;29.95;;;4.82;;
19903;SDS011;10114;50.970;4.962;2022-12-24T06:31:55;29.35;;;4.45;;
19903;SDS011;10114;50.970;4.962;2022-12-24T06:34:21;35.03;;;5.03;;
19903;SDS011;10114;50.970;4.962;2022-12-24T06:36:47;27.80;;;4.93;;
19903;SDS011;10114;50.970;4.962;2022-12-24T06:39:15;26.50;;;4.05;;
19903;SDS011;10114;50.970;4.962;2022-12-24T06:41:41;29.75;;;4.82;;
19903;SDS011;10114;50.970;4.962;2022-12-24T06:44:08;41.50;;;5.15;;
19903;SDS011;10114;50.970;4.962;2022-12-24T06:46:34;23.63;;;4.55;;
19903;SDS011;10114;50.970;4.962;2022-12-24T06:49:00;32.83;;;5.43;;
19903;SDS011;10114;50.970;4.962;2022-12-24T06:51:26;27.88;;;4.25;;
19903;SDS011;10114;50.970;4.962;2022-12-24T06:53:52;33.05;;;4.90;;
19903;SDS011;10114;50.970;4.962;2022-12-24T06:56:19;25.98;;;3.95;;
19903;SDS011;10114;50.970;4.962;2022-12-24T06:58:45;36.63;;;4.70;;
19903;SDS011;10114;50.970;4.962;2022-12-24T07:01:12;25.90;;;4.85;;
19903;SDS011;10114;50.970;4.962;2022-12-24T07:03:39;30.55;;;4.47;;
19903;SDS011;10114;50.970;4.962;2022-12-24T07:06:05;35.65;;;5.25;;
19903;SDS011;10114;50.970;4.962;2022-12-24T07:08:32;37.35;;;4.40;;
19903;SDS011;10114;50.970;4.962;2022-12-24T07:11:00;33.60;;;6.22;;
19903;SDS011;10114;50.970;4.962;2022-12-24T07:13:26;37.40;;;5.18;;
19903;SDS011;10114;50.970;4.962;2022-12-24T07:16:00;26.38;;;4.13;;
19903;SDS011;10114;50.970;4.962;2022-12-24T07:18:28;29.08;;;4.93;;
19903;SDS011;10114;50.970;4.962;2022-12-24T07:20:54;38.55;;;5.07;;
19903;SDS011;10114;50.970;4.962;2022-12-24T07:23:20;27.33;;;5.93;;
19903;SDS011;10114;50.970;4.962;2022-12-24T07:25:46;34.03;;;5.38;;
19903;SDS011;10114;50.970;4.962;2022-12-24T07:28:12;38.70;;;4.95;;
19903;SDS011;10114;50.970;4.962;2022-12-24T07:30:38;26.63;;;5.15;;
19903;SDS011;10114;50.970;4.962;2022-12-24T07:33:04;27.92;;;4.68;;
19903;SDS011;10114;50.970;4.962;2022-12-24T07:35:30;31.45;;;5.15;;
19903;SDS011;10114;50.970;4.962;2022-12-24T07:37:56;39.90;;;5.80;;
19903;SDS011;10114;50.970;4.962;2022-12-24T07:40:22;34.15;;;5.32;;
19903;SDS011;10114;50.970;4.962;2022-12-24T07:42:48;40.05;;;5.47;;
19903;SDS011;10114;50.970;4.962;2022-12-24T07:45:14;35.17;;;5.40;;
19903;SDS011;10114;50.970;4.962;2022-12-24T07:47:40;32.35;;;5.20;;
19903;SDS011;10114;50.970;4.962;2022-12-24T07:50:07;32.67;;;5.72;;
19903;SDS011;10114;50.970;4.962;2022-12-24T07:52:33;34.67;;;5.20;;
19903;SDS011;10114;50.970;4.962;2022-12-24T07:54:59;38.35;;;5.72;;
19903;SDS011;10114;50.970;4.962;2022-12-24T07:57:25;28.25;;;5.68;;
19903;SDS011;10114;50.970;4.962;2022-12-24T07:59:51;50.15;;;7.40;;
19903;SDS011;10114;50.970;4.962;2022-12-24T08:02:17;33.70;;;5.93;;
19903;SDS011;10114;50.970;4.962;2022-12-24T08:04:43;44.00;;;7.82;;
19903;SDS011;10114;50.970;4.962;2022-12-24T08:07:09;28.00;;;5.00;;
19903;SDS011;10114;50.970;4.962;2022-12-24T08:09:35;31.25;;;6.50;;
19903;SDS011;10114;50.970;4.962;2022-12-24T08:12:01;23.85;;;5.55;;
19903;SDS011;10114;50.970;4.962;2022-12-24T08:14:28;36.10;;;6.72;;
19903;SDS011;10114;50.970;4.962;2022-12-24T08:16:54;28.02;;;5.10;;
19903;SDS011;10114;50.970;4.962;2022-12-24T08:19:20;24.83;;;4.40;;
19903;SDS011;10114;50.970;4.962;2022-12-24T08:21:47;38.33;;;5.45;;
19903;SDS011;10114;50.970;4.962;2022-12-24T08:24:13;28.48;;;5.32;;
19903;SDS011;10114;50.970;4.962;2022-12-24T08:26:39;36.33;;;5.43;;
19903;SDS011;10114;50.970;4.962;2022-12-24T08:29:05;31.15;;;5.43;;
19903;SDS011;10114;50.970;4.962;2022-12-24T08:31:31;27.13;;;4.50;;
19903;SDS011;10114;50.970;4.962;2022-12-24T08:34:04;34.28;;;5.35;;
19903;SDS011;10114;50.970;4.962;2022-12-24T08:36:30;30.77;;;4.95;;
19903;SDS011;10114;50.970;4.962;2022-12-24T08:38:56;33.20;;;5.05;;
19903;SDS011;10114;50.970;4.962;2022-12-24T08:41:23;23.98;;;4.45;;
19903;SDS011;10114;50.970;4.962;2022-12-24T08:43:49;31.92;;;5.32;;
19903;SDS011;10114;50.970;4.962;2022-12-24T08:46:15;36.50;;;5.15;;
19903;SDS011;10114;50.970;4.962;2022-12-24T08:48:41;27.75;;;5.43;;
19903;SDS011;10114;50.970;4.962;2022-12-24T08:51:08;37.60;;;6.18;;
19903;SDS011;10114;50.970;4.962;2022-12-24T08:53:34;39.03;;;5.78;;
19903;SDS011;10114;50.970;4.962;2022-12-24T08:56:01;31.63;;;6.13;;
19903;SDS011;10114;50.970;4.962;2022-12-24T08:58:28;23.58;;;5.13;;
19903;SDS011;10114;50.970;4.962;2022-12-24T09:00:54;30.63;;;5.30;;
19903;SDS011;10114;50.970;4.962;2022-12-24T09:03:20;28.83;;;5.63;;
19903;SDS011;10114;50.970;4.962;2022-12-24T09:05:46;34.10;;;4.85;;
19903;SDS011;10114;50.970;4.962;2022-12-24T09:08:12;34.83;;;4.97;;
19903;SDS011;10114;50.970;4.962;2022-12-24T09:10:38;24.50;;;4.90;;
19903;SDS011;10114;50.970;4.962;2022-12-24T09:13:04;27.60;;;4.65;;
19903;SDS011;10114;50.970;4.962;2022-12-24T09:15:30;33.88;;;4.78;;
19903;SDS011;10114;50.970;4.962;2022-12-24T09:17:56;41.95;;;5.13;;
19903;SDS011;10114;50.970;4.962;2022-12-24T09:20:22;32.15;;;5.18;;
19903;SDS011;10114;50.970;4.962;2022-12-24T09:22:48;30.50;;;4.68;;
19903;SDS011;10114;50.970;4.962;2022-12-24T09:25:14;26.17;;;4.15;;
19903;SDS011;10114;50.970;4.962;2022-12-24T09:27:40;31.17;;;6.13;;
19903;SDS011;10114;50.970;4.962;2022-12-24T09:30:07;37.42;;;5.07;;
19903;SDS011;10114;50.970;4.962;2022-12-24T09:32:33;31.10;;;4.88;;
19903;SDS011;10114;50.970;4.962;2022-12-24T09:34:59;41.58;;;5.53;;
19903;SDS011;10114;50.970;4.962;2022-12-24T09:37:25;27.17;;;4.35;;
19903;SDS011;10114;50.970;4.962;2022-12-24T09:39:52;28.15;;;4.95;;
19903;SDS011;10114;50.970;4.962;2022-12-24T09:47:12;33.78;;;4.90;;
19903;SDS011;10114;50.970;4.962;2022-12-24T09:49:41;30.73;;;5.75;;
19903;SDS011;10114;50.970;4.962;2022-12-24T09:52:09;22.42;;;5.50;;
19903;SDS011;10114;50.970;4.962;2022-12-24T09:54:38;32.42;;;5.75;;
19903;SDS011;10114;50.970;4.962;2022-12-24T09:57:07;29.15;;;5.45;;
19903;SDS011;10114;50.970;4.962;2022-12-24T09:59:40;34.70;;;5.07;;
19903;SDS011;10114;50.970;4.962;2022-12-24T10:02:13;35.10;;;5.35;;
19903;SDS011;10114;50.970;4.962;2022-12-24T10:04:40;34.92;;;4.70;;
19903;SDS011;10114;50.970;4.962;2022-12-24T10:10:25;39.33;;;4.50;;
19903;SDS011;10114;50.970;4.962;2022-12-24T10:20:46;43.33;;;5.95;;
19903;SDS011;10114;50.970;4.962;2022-12-24T10:25:55;32.35;;;4.75;;
19903;SDS011;10114;50.970;4.962;2022-12-24T10:28:45;30.73;;;4.82;;
19903;SDS011;10114;50.970;4.962;2022-12-24T10:31:11;28.88;;;4.88;;
19903;SDS011;10114;50.970;4.962;2022-12-24T10:33:43;30.50;;;4.95;;
19903;SDS011;10114;50.970;4.962;2022-12-24T10:36:17;28.80;;;5.13;;
19903;SDS011;10114;50.970;4.962;2022-12-24T10:38:43;40.22;;;4.80;;
19903;SDS011;10114;50.970;4.962;2022-12-24T10:41:09;22.38;;;4.35;;
19903;SDS011;10114;50.970;4.962;2022-12-24T10:43:37;30.67;;;4.50;;
19903;SDS011;10114;50.970;4.962;2022-12-24T10:46:05;27.58;;;4.55;;
19903;SDS011;10114;50.970;4.962;2022-12-24T10:51:12;29.80;;;5.38;;
19903;SDS011;10114;50.970;4.962;2022-12-24T10:53:43;33.10;;;4.85;;
19903;SDS011;10114;50.970;4.962;2022-12-24T10:56:11;31.77;;;5.80;;
19903;SDS011;10114;50.970;4.962;2022-12-24T10:58:44;25.85;;;4.93;;
19903;SDS011;10114;50.970;4.962;2022-12-24T11:01:11;28.33;;;4.82;;
19903;SDS011;10114;50.970;4.962;2022-12-24T11:03:38;23.33;;;4.05;;
19903;SDS011;10114;50.970;4.962;2022-12-24T11:06:08;34.33;;;4.47;;
19903;SDS011;10114;50.970;4.962;2022-12-24T11:08:35;27.10;;;4.18;;
19903;SDS011;10114;50.970;4.962;2022-12-24T11:11:23;27.73;;;4.55;;
19903;SDS011;10114;50.970;4.962;2022-12-24T11:16:20;28.20;;;6.60;;
19903;SDS011;10114;50.970;4.962;2022-12-24T11:18:52;33.53;;;6.03;;
19903;SDS011;10114;50.970;4.962;2022-12-24T11:21:29;24.58;;;4.88;;
19903;SDS011;10114;50.970;4.962;2022-12-24T11:23:56;31.08;;;6.03;;
19903;SDS011;10114;50.970;4.962;2022-12-24T11:26:24;32.78;;;5.35;;
19903;SDS011;10114;50.970;4.962;2022-12-24T11:29:04;26.27;;;4.75;;
19903;SDS011;10114;50.970;4.962;2022-12-24T11:31:31;30.10;;;5.72;;
19903;SDS011;10114;50.970;4.962;2022-12-24T11:34:03;28.98;;;4.85;;
19903;SDS011;10114;50.970;4.962;2022-12-24T11:36:42;28.15;;;4.60;;
19903;SDS011;10114;50.970;4.962;2022-12-24T11:39:09;28.02;;;4.13;;
19903;SDS011;10114;50.970;4.962;2022-12-24T11:41:39;19.00;;;4.53;;
19903;SDS011;10114;50.970;4.962;2022-12-24T11:44:07;23.60;;;4.15;;
19903;SDS011;10114;50.970;4.962;2022-12-24T11:46:35;32.17;;;4.10;;
19903;SDS011;10114;50.970;4.962;2022-12-24T11:49:05;24.70;;;3.67;;
19903;SDS011;10114;50.970;4.962;2022-12-24T11:51:38;32.20;;;4.60;;
19903;SDS011;10114;50.970;4.962;2022-12-24T11:54:10;25.50;;;4.15;;
19903;SDS011;10114;50.970;4.962;2022-12-24T11:56:44;24.38;;;3.88;;
19903;SDS011;10114;50.970;4.962;2022-12-24T11:59:25;26.30;;;4.65;;
19903;SDS011;10114;50.970;4.962;2022-12-24T12:01:54;22.00;;;4.45;;
19903;SDS011;10114;50.970;4.962;2022-12-24T12:04:26;25.95;;;4.45;;
19903;SDS011;10114;50.970;4.962;2022-12-24T12:09:33;18.70;;;4.50;;
19903;SDS011;10114;50.970;4.962;2022-12-24T12:14:33;26.10;;;3.83;;
19903;SDS011;10114;50.970;4.962;2022-12-24T12:19:47;29.83;;;5.10;;
19903;SDS011;10114;50.970;4.962;2022-12-24T12:22:21;31.27;;;4.20;;
19903;SDS011;10114;50.970;4.962;2022-12-24T12:24:49;29.15;;;5.50;;
19903;SDS011;10114;50.970;4.962;2022-12-24T12:27:20;32.50;;;4.88;;
19903;SDS011;10114;50.970;4.962;2022-12-24T12:30:00;27.38;;;4.50;;
19903;SDS011;10114;50.970;4.962;2022-12-24T12:32:34;26.02;;;4.10;;
19903;SDS011;10114;50.970;4.962;2022-12-24T12:35:13;28.80;;;4.43;;
19903;SDS011;10114;50.970;4.962;2022-12-24T12:37:42;26.30;;;3.70;;
19903;SDS011;10114;50.970;4.962;2022-12-24T12:40:13;25.10;;;4.53;;
19903;SDS011;10114;50.970;4.962;2022-12-24T12:42:40;27.75;;;4.70;;
19903;SDS011;10114;50.970;4.962;2022-12-24T12:57:33;26.73;;;5.53;;
19903;SDS011;10114;50.970;4.962;2022-12-24T13:00:04;30.98;;;5.78;;
19903;SDS011;10114;50.970;4.962;2022-12-24T13:20:40;28.98;;;4.30;;
19903;SDS011;10114;50.970;4.962;2022-12-24T13:23:11;26.88;;;5.13;;
19903;SDS011;10114;50.970;4.962;2022-12-24T13:25:45;25.00;;;4.30;;
19903;SDS011;10114;50.970;4.962;2022-12-24T13:31:01;26.50;;;4.40;;
19903;SDS011;10114;50.970;4.962;2022-12-24T13:36:05;24.40;;;4.35;;
19903;SDS011;10114;50.970;4.962;2022-12-24T13:51:47;21.80;;;4.43;;
19903;SDS011;10114;50.970;4.962;2022-12-24T13:54:16;26.00;;;4.43;;
19903;SDS011;10114;50.970;4.962;2022-12-24T13:56:43;23.02;;;3.75;;
19903;SDS011;10114;50.970;4.962;2022-12-24T13:59:12;26.75;;;4.82;;
19903;SDS011;10114;50.970;4.962;2022-12-24T14:01:41;28.75;;;4.18;;
19903;SDS011;10114;50.970;4.962;2022-12-24T14:04:08;29.83;;;4.43;;
19903;SDS011;10114;50.970;4.962;2022-12-24T14:06:36;34.35;;;4.38;;
19903;SDS011;10114;50.970;4.962;2022-12-24T14:09:10;33.67;;;5.20;;
19903;SDS011;10114;50.970;4.962;2022-12-24T14:16:52;24.40;;;3.75;;
19903;SDS011;10114;50.970;4.962;2022-12-24T14:19:21;21.48;;;5.18;;
19903;SDS011;10114;50.970;4.962;2022-12-24T14:24:15;27.58;;;6.18;;
19903;SDS011;10114;50.970;4.962;2022-12-24T14:26:43;29.25;;;6.20;;
19903;SDS011;10114;50.970;4.962;2022-12-24T14:29:30;22.48;;;5.18;;
19903;SDS011;10114;50.970;4.962;2022-12-24T14:31:58;29.63;;;5.03;;
19903;SDS011;10114;50.970;4.962;2022-12-24T14:34:24;31.83;;;5.68;;
19903;SDS011;10114;50.970;4.962;2022-12-24T14:36:51;29.33;;;5.50;;
19903;SDS011;10114;50.970;4.962;2022-12-24T14:41:53;30.05;;;6.70;;
19903;SDS011;10114;50.970;4.962;2022-12-24T14:44:28;37.33;;;9.02;;
19903;SDS011;10114;50.970;4.962;2022-12-24T14:46:56;39.90;;;11.20;;
19903;SDS011;10114;50.970;4.962;2022-12-24T14:52:01;22.65;;;5.95;;
19903;SDS011;10114;50.970;4.962;2022-12-24T14:54:30;29.80;;;5.95;;
19903;SDS011;10114;50.970;4.962;2022-12-24T15:05:00;29.73;;;5.72;;
19903;SDS011;10114;50.970;4.962;2022-12-24T15:07:26;28.20;;;5.18;;
19903;SDS011;10114;50.970;4.962;2022-12-24T15:09:53;26.02;;;4.82;;
19903;SDS011;10114;50.970;4.962;2022-12-24T15:12:19;28.23;;;5.68;;
19903;SDS011;10114;50.970;4.962;2022-12-24T15:14:47;30.10;;;7.82;;
19903;SDS011;10114;50.970;4.962;2022-12-24T15:17:13;28.80;;;8.45;;
19903;SDS011;10114;50.970;4.962;2022-12-24T15:19:43;29.30;;;8.77;;
19903;SDS011;10114;50.970;4.962;2022-12-24T15:22:10;24.70;;;7.63;;
19903;SDS011;10114;50.970;4.962;2022-12-24T15:24:45;34.47;;;7.43;;
19903;SDS011;10114;50.970;4.962;2022-12-24T15:27:19;36.78;;;10.10;;
19903;SDS011;10114;50.970;4.962;2022-12-24T15:29:47;31.77;;;7.53;;
19903;SDS011;10114;50.970;4.962;2022-12-24T15:32:14;30.13;;;6.68;;
19903;SDS011;10114;50.970;4.962;2022-12-24T15:34:41;28.80;;;6.50;;
19903;SDS011;10114;50.970;4.962;2022-12-24T15:37:21;33.97;;;6.97;;
19903;SDS011;10114;50.970;4.962;2022-12-24T15:39:57;30.50;;;6.82;;
19903;SDS011;10114;50.970;4.962;2022-12-24T15:42:24;31.98;;;6.95;;
19903;SDS011;10114;50.970;4.962;2022-12-24T15:47:37;30.77;;;7.43;;
19903;SDS011;10114;50.970;4.962;2022-12-24T15:52:37;36.53;;;6.32;;
19903;SDS011;10114;50.970;4.962;2022-12-24T15:55:05;26.63;;;6.38;;
19903;SDS011;10114;50.970;4.962;2022-12-24T15:57:49;29.50;;;8.35;;
19903;SDS011;10114;50.970;4.962;2022-12-24T16:00:25;29.48;;;7.13;;
19903;SDS011;10114;50.970;4.962;2022-12-24T16:02:55;37.40;;;8.27;;
19903;SDS011;10114;50.970;4.962;2022-12-24T16:05:34;34.13;;;7.00;;
19903;SDS011;10114;50.970;4.962;2022-12-24T16:08:02;30.38;;;8.77;;
19903;SDS011;10114;50.970;4.962;2022-12-24T16:10:31;28.95;;;7.78;;
19903;SDS011;10114;50.970;4.962;2022-12-24T16:12:58;34.35;;;9.55;;
19903;SDS011;10114;50.970;4.962;2022-12-24T16:15:25;48.53;;;9.05;;
19903;SDS011;10114;50.970;4.962;2022-12-24T16:17:51;38.70;;;10.65;;
19903;SDS011;10114;50.970;4.962;2022-12-24T16:20:19;49.10;;;10.55;;
19903;SDS011;10114;50.970;4.962;2022-12-24T16:22:46;44.08;;;10.40;;
19903;SDS011;10114;50.970;4.962;2022-12-24T16:25:25;35.88;;;8.93;;
19903;SDS011;10114;50.970;4.962;2022-12-24T16:27:52;28.90;;;8.70;;
19903;SDS011;10114;50.970;4.962;2022-12-24T16:30:18;32.10;;;8.70;;
19903;SDS011;10114;50.970;4.962;2022-12-24T16:32:44;40.33;;;9.05;;
19903;SDS011;10114;50.970;4.962;2022-12-24T16:35:16;28.80;;;7.05;;
19903;SDS011;10114;50.970;4.962;2022-12-24T16:37:44;41.33;;;7.60;;
19903;SDS011;10114;50.970;4.962;2022-12-24T16:40:14;50.15;;;9.80;;
19903;SDS011;10114;50.970;4.962;2022-12-24T16:42:40;43.80;;;7.85;;
19903;SDS011;10114;50.970;4.962;2022-12-24T16:45:29;40.15;;;9.60;;
19903;SDS011;10114;50.970;4.962;2022-12-24T16:47:56;38.25;;;10.90;;
19903;SDS011;10114;50.970;4.962;2022-12-24T16:50:22;40.45;;;11.65;;
19903;SDS011;10114;50.970;4.962;2022-12-24T16:52:48;47.17;;;11.77;;
19903;SDS011;10114;50.970;4.962;2022-12-24T16:55:14;42.05;;;10.27;;
19903;SDS011;10114;50.970;4.962;2022-12-24T16:57:41;38.85;;;11.43;;
19903;SDS011;10114;50.970;4.962;2022-12-24T17:00:17;39.45;;;10.05;;
19903;SDS011;10114;50.970;4.962;2022-12-24T17:02:44;37.60;;;10.88;;